Vronskiy — C4AY2 — position and weather

sailwx.info

Track history (hours):
 
Tides and Currents Weather Stations Pressure Air Temp Water Temp Dewpoint Dewpoint Depression Visibility Wind Speed Wind Dir Waves Ship Positions

Vronskiy

Last reported at 2014-Dec-22 23:33 UTC. Time now 2014-Dec-23 01:35 UTC.
Position N 35°57' W 005°27'.

Length 131 m; draft 5.2 m.

Type: Passenger vessel. MMSI: 210030000.

Date/timePositionNaut miles runAvg speedWind from/ knotsBaromVisibWave heightAir tempDewpointWater temp
2014-Dec-22 23:33N 35°57' W 005°27'1 0.7
2014-Dec-22 21:33N 35°58' W 005°29'1 0.1
2014-Dec-22 15:33N 35°58' W 005°29'4 1.0
2014-Dec-22 11:27N 35°60' W 005°24'2 0.6
2014-Dec-22 08:33N 36°00' W 005°27'5 0.6
2014-Dec-22 00:19N 35°56' W 005°30'1114.9
2014-Dec-21 23:33N 36°06' W 005°24'10 2.0
2014-Dec-21 18:33N 35°57' W 005°29'11 2.6
2014-Dec-21 14:18N 36°08' W 005°26'910.2
2014-Dec-21 13:26N 35°59' W 005°25'2 0.4
2014-Dec-21 09:33N 35°60' W 005°27'8 1.7
2014-Dec-21 04:33N 36°08' W 005°26'1110.6
2014-Dec-21 03:33N 35°57' W 005°27'3 0.7
2014-Dec-20 23:33N 36°00' W 005°27'1 0.3
2014-Dec-20 19:11N 36°01' W 005°25'6 2.3
2014-Dec-20 16:29N 35°56' W 005°30'1313.5
2014-Dec-20 15:31N 36°09' W 005°26'13 2.1
2014-Dec-20 09:14N 35°56' W 005°30'1014.4
2014-Dec-20 08:32N 36°05' W 005°24'3 2.4
2014-Dec-20 07:08N 36°08' W 005°26'0 0.0
2014-Dec-20 06:20N 36°08' W 005°26'0 0.0
2014-Dec-20 02:29N 36°08' W 005°26'10 9.6
2014-Dec-20 01:25N 35°58' W 005°27'3 1.0
2014-Dec-19 22:10N 35°56' W 005°30'915.1
2014-Dec-19 21:33N 36°04' W 005°24'1 0.2
2014-Dec-19 18:07N 36°03' W 005°24'9 3.2
2014-Dec-19 15:22N 35°57' W 005°30'1214.2
2014-Dec-19 14:32N 36°07' W 005°24'15 2.8
2014-Dec-19 09:12N 35°53' W 005°31'1015.3
2014-Dec-19 08:33N 36°02' W 005°25'6 0.9
2014-Dec-19 01:26N 36°08' W 005°26'910.4
2014-Dec-19 00:33N 35°59' W 005°25'4 2.0
2014-Dec-18 22:33N 35°57' W 005°30'12 5.7
2014-Dec-18 20:23N 36°09' W 005°26'1011.8
2014-Dec-18 19:31N 35°59' W 005°26'4 1.2
2014-Dec-18 16:15N 35°56' W 005°30'913.6
2014-Dec-18 15:33N 36°04' W 005°24'5 1.7
2014-Dec-18 12:33N 36°09' W 005°26'1313.2
2014-Dec-18 11:33N 35°56' W 005°29'3 1.2
2014-Dec-18 08:33N 35°59' W 005°27'9 1.7
2014-Dec-18 03:28N 36°08' W 005°26'8 8.4
2014-Dec-18 02:29N 35°60' W 005°24'6 3.2
2014-Dec-18 00:30N 35°57' W 005°31'7 2.0
2014-Dec-17 21:04N 35°60' W 005°24'9 3.1
2014-Dec-17 18:14N 35°53' W 005°31'914.0
2014-Dec-17 17:34N 36°01' W 005°25'6 4.4
2014-Dec-17 16:05N 36°08' W 005°26'0 0.0
2014-Dec-17 13:32N 36°08' W 005°26'9 8.0
2014-Dec-17 12:22N 35°59' W 005°26'6 2.1
2014-Dec-17 09:17N 35°54' W 005°31'1014.6
2014-Dec-17 08:33N 36°03' W 005°24'6 0.9
2014-Dec-17 02:34N 36°08' W 005°26'10 9.8
2014-Dec-17 01:32N 35°58' W 005°26'6 1.8
2014-Dec-16 22:13N 35°53' W 005°31'1014.4
2014-Dec-16 21:34N 36°01' W 005°25'7 5.2
2014-Dec-16 20:17N 36°08' W 005°26'0 0.0
2014-Dec-16 19:32N 36°08' W 005°26'9 9.2
2014-Dec-16 18:33N 35°59' W 005°25'2 0.6
2014-Dec-16 15:33N 36°01' W 005°26'8 2.8
2014-Dec-16 12:32N 36°09' W 005°26'1312.5
2014-Dec-16 11:32N 35°57' W 005°28'3 1.0
2014-Dec-16 08:33N 35°59' W 005°27'9 7.3
2014-Dec-16 07:22N 36°08' W 005°26'0 0.0
2014-Dec-16 06:28N 36°08' W 005°26'0 0.0
2014-Dec-16 05:31N 36°08' W 005°26'0 0.0
2014-Dec-16 03:31N 36°08' W 005°26'0 0.0
2014-Dec-16 02:17N 36°08' W 005°26'8 6.1
2014-Dec-16 01:03N 36°00' W 005°25'9 4.8
2014-Dec-15 23:10N 35°53' W 005°31'914.2
2014-Dec-15 22:33N 36°01' W 005°26'8 1.3
2014-Dec-15 16:21N 35°53' W 005°31'1114.3
2014-Dec-15 15:33N 36°03' W 005°24'1 0.4
2014-Dec-15 12:16N 36°03' W 005°23'12 3.6
2014-Dec-15 09:03N 35°53' W 005°31'714.3
2014-Dec-15 08:33N 35°60' W 005°28'8 1.6
2014-Dec-15 03:10N 36°08' W 005°26'9 9.3
2014-Dec-15 02:13N 35°59' W 005°25'5 3.0
2014-Dec-15 00:29N 35°56' W 005°30'1211.4
2014-Dec-14 23:24N 36°08' W 005°26'1 0.3
2014-Dec-14 20:33N 36°09' W 005°26'1111.3
2014-Dec-14 19:33N 35°58' W 005°27'3 1.1
2014-Dec-14 16:33N 36°01' W 005°26'9 1.2
2014-Dec-14 09:14N 35°53' W 005°31'912.5
2014-Dec-14 08:33N 36°01' W 005°26'7 1.7
2014-Dec-14 04:20N 36°08' W 005°26'9 9.3
2014-Dec-14 03:19N 35°59' W 005°22'10 1.8
2014-Dec-13 22:07N 35°53' W 005°31'813.9
2014-Dec-13 21:33N 36°00' W 005°27'8 3.3
2014-Dec-13 19:10N 36°08' W 005°26'6 7.9
2014-Dec-13 18:21N 36°02' W 005°24'6 2.1
2014-Dec-13 15:32N 35°57' W 005°29'1110.2
2014-Dec-13 14:28N 36°08' W 005°26'1 0.6
2014-Dec-13 12:30N 36°09' W 005°26'1313.4
2014-Dec-13 11:33N 35°57' W 005°28'2 0.8
2014-Dec-13 08:33N 35°59' W 005°28'9 1.3
2014-Dec-13 01:14N 36°08' W 005°26'9 9.2
2014-Dec-13 00:18N 35°59' W 005°25'  
Track history (hours):
 
Tides and Currents Weather Stations Pressure Air Temp Water Temp Dewpoint Dewpoint Depression Visibility Wind Speed Wind Dir Waves Ship Positions

Vronskiy

Last reported at 2014-Dec-22 23:33 UTC. Time now 2014-Dec-23 01:35 UTC.
Position N 35°57' W 005°27'.

Length 131 m; draft 5.2 m.

Type: Passenger vessel. MMSI: 210030000.

Date/timePositionNaut miles runAvg speedWind from/ knotsBaromVisibWave heightAir tempDewpointWater temp
2014-Dec-22 23:33N 35°57' W 005°27'1 0.7
2014-Dec-22 21:33N 35°58' W 005°29'1 0.1
2014-Dec-22 15:33N 35°58' W 005°29'4 1.0
2014-Dec-22 11:27N 35°60' W 005°24'2 0.6
2014-Dec-22 08:33N 36°00' W 005°27'5 0.6
2014-Dec-22 00:19N 35°56' W 005°30'1114.9
2014-Dec-21 23:33N 36°06' W 005°24'10 2.0
2014-Dec-21 18:33N 35°57' W 005°29'11 2.6
2014-Dec-21 14:18N 36°08' W 005°26'910.2
2014-Dec-21 13:26N 35°59' W 005°25'2 0.4
2014-Dec-21 09:33N 35°60' W 005°27'8 1.7
2014-Dec-21 04:33N 36°08' W 005°26'1110.6
2014-Dec-21 03:33N 35°57' W 005°27'3 0.7
2014-Dec-20 23:33N 36°00' W 005°27'1 0.3
2014-Dec-20 19:11N 36°01' W 005°25'6 2.3
2014-Dec-20 16:29N 35°56' W 005°30'1313.5
2014-Dec-20 15:31N 36°09' W 005°26'13 2.1
2014-Dec-20 09:14N 35°56' W 005°30'1014.4
2014-Dec-20 08:32N 36°05' W 005°24'3 2.4
2014-Dec-20 07:08N 36°08' W 005°26'0 0.0
2014-Dec-20 06:20N 36°08' W 005°26'0 0.0
2014-Dec-20 02:29N 36°08' W 005°26'10 9.6
2014-Dec-20 01:25N 35°58' W 005°27'3 1.0
2014-Dec-19 22:10N 35°56' W 005°30'915.1
2014-Dec-19 21:33N 36°04' W 005°24'1 0.2
2014-Dec-19 18:07N 36°03' W 005°24'9 3.2
2014-Dec-19 15:22N 35°57' W 005°30'1214.2
2014-Dec-19 14:32N 36°07' W 005°24'15 2.8
2014-Dec-19 09:12N 35°53' W 005°31'1015.3
2014-Dec-19 08:33N 36°02' W 005°25'6 0.9
2014-Dec-19 01:26N 36°08' W 005°26'910.4
2014-Dec-19 00:33N 35°59' W 005°25'4 2.0
2014-Dec-18 22:33N 35°57' W 005°30'12 5.7
2014-Dec-18 20:23N 36°09' W 005°26'1011.8
2014-Dec-18 19:31N 35°59' W 005°26'4 1.2
2014-Dec-18 16:15N 35°56' W 005°30'913.6
2014-Dec-18 15:33N 36°04' W 005°24'5 1.7
2014-Dec-18 12:33N 36°09' W 005°26'1313.2
2014-Dec-18 11:33N 35°56' W 005°29'3 1.2
2014-Dec-18 08:33N 35°59' W 005°27'9 1.7
2014-Dec-18 03:28N 36°08' W 005°26'8 8.4
2014-Dec-18 02:29N 35°60' W 005°24'6 3.2
2014-Dec-18 00:30N 35°57' W 005°31'7 2.0
2014-Dec-17 21:04N 35°60' W 005°24'9 3.1
2014-Dec-17 18:14N 35°53' W 005°31'914.0
2014-Dec-17 17:34N 36°01' W 005°25'6 4.4
2014-Dec-17 16:05N 36°08' W 005°26'0 0.0
2014-Dec-17 13:32N 36°08' W 005°26'9 8.0
2014-Dec-17 12:22N 35°59' W 005°26'6 2.1
2014-Dec-17 09:17N 35°54' W 005°31'1014.6
2014-Dec-17 08:33N 36°03' W 005°24'6 0.9
2014-Dec-17 02:34N 36°08' W 005°26'10 9.8
2014-Dec-17 01:32N 35°58' W 005°26'6 1.8
2014-Dec-16 22:13N 35°53' W 005°31'1014.4
2014-Dec-16 21:34N 36°01' W 005°25'7 5.2
2014-Dec-16 20:17N 36°08' W 005°26'0 0.0
2014-Dec-16 19:32N 36°08' W 005°26'9 9.2
2014-Dec-16 18:33N 35°59' W 005°25'2 0.6
2014-Dec-16 15:33N 36°01' W 005°26'8 2.8
2014-Dec-16 12:32N 36°09' W 005°26'1312.5
2014-Dec-16 11:32N 35°57' W 005°28'3 1.0
2014-Dec-16 08:33N 35°59' W 005°27'9 7.3
2014-Dec-16 07:22N 36°08' W 005°26'0 0.0
2014-Dec-16 06:28N 36°08' W 005°26'0 0.0
2014-Dec-16 05:31N 36°08' W 005°26'0 0.0
2014-Dec-16 03:31N 36°08' W 005°26'0 0.0
2014-Dec-16 02:17N 36°08' W 005°26'8 6.1
2014-Dec-16 01:03N 36°00' W 005°25'9 4.8
2014-Dec-15 23:10N 35°53' W 005°31'914.2
2014-Dec-15 22:33N 36°01' W 005°26'8 1.3
2014-Dec-15 16:21N 35°53' W 005°31'1114.3
2014-Dec-15 15:33N 36°03' W 005°24'1 0.4
2014-Dec-15 12:16N 36°03' W 005°23'12 3.6
2014-Dec-15 09:03N 35°53' W 005°31'714.3
2014-Dec-15 08:33N 35°60' W 005°28'8 1.6
2014-Dec-15 03:10N 36°08' W 005°26'9 9.3
2014-Dec-15 02:13N 35°59' W 005°25'5 3.0
2014-Dec-15 00:29N 35°56' W 005°30'1211.4
2014-Dec-14 23:24N 36°08' W 005°26'1 0.3
2014-Dec-14 20:33N 36°09' W 005°26'1111.3
2014-Dec-14 19:33N 35°58' W 005°27'3 1.1
2014-Dec-14 16:33N 36°01' W 005°26'9 1.2
2014-Dec-14 09:14N 35°53' W 005°31'912.5
2014-Dec-14 08:33N 36°01' W 005°26'7 1.7
2014-Dec-14 04:20N 36°08' W 005°26'9 9.3
2014-Dec-14 03:19N 35°59' W 005°22'10 1.8
2014-Dec-13 22:07N 35°53' W 005°31'813.9
2014-Dec-13 21:33N 36°00' W 005°27'8 3.3
2014-Dec-13 19:10N 36°08' W 005°26'6 7.9
2014-Dec-13 18:21N 36°02' W 005°24'6 2.1
2014-Dec-13 15:32N 35°57' W 005°29'1110.2
2014-Dec-13 14:28N 36°08' W 005°26'1 0.6
2014-Dec-13 12:30N 36°09' W 005°26'1313.4
2014-Dec-13 11:33N 35°57' W 005°28'2 0.8
2014-Dec-13 08:33N 35°59' W 005°28'9 1.3
2014-Dec-13 01:14N 36°08' W 005°26'9 9.2
2014-Dec-13 00:18N 35°59' W 005°25'  

Dump ship's entire track history